Time;durP1;ratioP1;P1;durP2;ratioP2;P2;SDS_P1;SDS_P2;PMS_P1;PMS_P2;Temp;Humidity;BMP_temperature;BMP_pressure;BME280_temperature;BME280_humidity;BME280_pressure;Samples;Min_cycle;Max_cycle;Signal;HPM_P1;HPM_P2
2021/08/13 02:46:45;;;;;;;;;;;21.40;96.20;;;;;;5;36059872;41314575;-86
2021/08/13 02:50:06;;;;;;;;;;;21.50;96.50;;;;;;5;36014784;41266935;-86
2021/08/13 02:53:26;;;;;;;;;;;21.30;96.80;;;;;;5;36016766;41266842;-85
2021/08/13 02:56:41;;;;;;;;;;;21.20;97.10;;;;;;5;36015791;41267723;-86
2021/08/13 03:00:00;;;;;;;;;;;21.10;97.40;;;;;;5;36013252;41266547;-87
2021/08/13 03:03:20;;;;;;;;;;;21.20;97.30;;;;;;5;36012814;41266348;-87
2021/08/13 03:06:41;;;;;;;;;;;21.20;97.60;;;;;;5;36014188;41267477;-87
2021/08/13 03:09:56;;;;;;;;;;;21.10;97.40;;;;;;5;36014694;41266539;-87
2021/08/13 03:13:16;;;;;;;;;;;21.20;97.20;;;;;;5;36012808;42016549;-87
2021/08/13 03:16:35;;;;;;;;;;;21.10;97.50;;;;;;5;36013948;41265924;-87
2021/08/13 03:19:55;;;;;;;;;;;21.10;97.70;;;;;;5;36013689;41266030;-87
2021/08/13 03:23:09;;;;;;;;;;;21.00;97.80;;;;;;5;36014309;41265601;-87
2021/08/13 03:26:27;;;;;;;;;;;21.00;98.00;;;;;;5;36013888;41266010;-86
2021/08/13 03:29:46;;;;;;;;;;;21.00;97.60;;;;;;5;36014049;41269026;-91
2021/08/13 03:33:08;;;;;;;;;;;20.90;97.40;;;;;;5;36014983;41265980;-89
2021/08/13 03:36:22;;;;;;;;;;;20.90;97.20;;;;;;5;36014717;41265854;-90
2021/08/13 03:39:39;;;;;;;;;;;21.00;97.40;;;;;;5;36013630;41266820;-87
2021/08/13 03:42:59;;;;;;;;;;;21.00;97.10;;;;;;5;36014761;41266167;-87
2021/08/13 03:46:20;;;;;;;;;;;21.00;97.50;;;;;;5;36012899;42016467;-87
2021/08/13 03:49:34;;;;;;;;;;;21.00;97.00;;;;;;5;36013392;41266439;-87
2021/08/13 03:52:51;;;;;;;;;;;21.00;97.20;;;;;;5;36013568;41266467;-88
2021/08/13 03:56:10;;;;;;;;;;;21.00;97.20;;;;;;5;36013539;41266690;-87
2021/08/13 03:59:30;;;;;;;;;;;21.00;96.10;;;;;;5;36013748;41266428;-87
2021/08/13 04:02:44;;;;;;;;;;;21.00;96.40;;;;;;5;36014583;41268187;-87
2021/08/13 04:06:38;;;;;;;;;;;21.00;96.50;;;;;;5;36014407;41265809;-86
2021/08/13 04:09:58;;;;;;;;;;;20.90;96.50;;;;;;5;36014222;41265485;-87
2021/08/13 04:13:17;;;;;;;;;;;20.80;97.10;;;;;;5;36013498;41265945;-87
2021/08/13 04:16:31;;;;;;;;;;;20.70;97.30;;;;;;5;36013067;41265786;-88
2021/08/13 04:19:50;;;;;;;;;;;20.60;97.40;;;;;;5;36014303;42016313;-87
2021/08/13 04:23:09;;;;;;;;;;;20.60;97.10;;;;;;5;36013660;41267163;-87
2021/08/13 04:26:29;;;;;;;;;;;20.60;96.70;;;;;;5;36013854;41265758;-87
2021/08/13 04:29:43;;;;;;;;;;;20.60;96.30;;;;;;5;36014749;41265359;-87
2021/08/13 04:33:05;;;;;;;;;;;20.60;95.80;;;;;;5;36013073;41266297;-87
2021/08/13 04:36:25;;;;;;;;;;;20.60;95.40;;;;;;5;36013286;41266665;-87
2021/08/13 04:39:44;;;;;;;;;;;20.70;95.00;;;;;;5;36013340;41265547;-87
2021/08/13 04:42:58;;;;;;;;;;;20.80;95.40;;;;;;5;36014877;41265334;-87
2021/08/13 04:46:15;;;;;;;;;;;20.80;95.80;;;;;;5;36013091;41266103;-84
2021/08/13 04:49:35;;;;;;;;;;;20.80;95.70;;;;;;5;36013920;41265291;-86
2021/08/13 04:52:56;;;;;;;;;;;20.90;96.10;;;;;;5;36012891;42016760;-86
2021/08/13 04:56:10;;;;;;;;;;;20.80;96.30;;;;;;5;36013283;41266192;-85
2021/08/13 04:59:28;;;;;;;;;;;20.80;96.60;;;;;;5;36013864;41265791;-86
2021/08/13 05:02:47;;;;;;;;;;;20.90;97.10;;;;;;5;36014019;41266403;-86
2021/08/13 05:06:07;;;;;;;;;;;21.00;96.20;;;;;;5;36014824;41265567;-78
2021/08/13 05:09:21;;;;;;;;;;;21.10;96.50;;;;;;5;36013575;41266791;-78
2021/08/13 05:12:38;;;;;;;;;;;21.20;96.30;;;;;;5;36012842;41266862;-78
2021/08/13 05:15:58;;;;;;;;;;;21.40;95.40;;;;;;5;36012917;41266709;-79
2021/08/13 05:19:18;;;;;;;;;;;21.60;95.40;;;;;;5;36014110;41265739;-78
2021/08/13 05:22:34;;;;;;;;;;;21.70;95.40;;;;;;5;36014347;41265144;-78
2021/08/13 05:25:52;;;;;;;;;;;21.80;94.60;;;;;;5;36014227;42015913;-78
2021/08/13 05:29:12;;;;;;;;;;;21.80;94.10;;;;;;5;36013380;41265639;-78
2021/08/13 05:32:31;;;;;;;;;;;21.80;93.60;;;;;;5;36013577;41265691;-78
2021/08/13 05:35:45;;;;;;;;;;;21.80;93.40;;;;;;5;36014167;41265677;-79
2021/08/13 05:39:02;;;;;;;;;;;21.70;93.60;;;;;;5;36013777;41265620;-79
2021/08/13 05:42:22;;;;;;;;;;;21.70;93.10;;;;;;5;36013983;41266513;-78
2021/08/13 05:45:41;;;;;;;;;;;21.80;93.50;;;;;;5;36014228;41265159;-79
2021/08/13 05:48:57;;;;;;;;;;;22.00;93.20;;;;;;5;36013869;41266098;-80
2021/08/13 05:52:15;;;;;;;;;;;22.10;92.50;;;;;;5;36014160;41266506;-78
2021/08/13 05:55:34;;;;;;;;;;;22.20;93.00;;;;;;5;36012999;41266058;-79
2021/08/13 05:59:00;;;;;;;;;;;22.30;93.10;;;;;;5;36013036;42016390;-79
2021/08/13 06:02:18;;;;;;;;;;;22.50;93.10;;;;;;5;36013291;41266364;-79
2021/08/13 06:05:35;;;;;;;;;;;22.70;92.30;;;;;;5;36013101;41266448;-79
2021/08/13 06:08:54;;;;;;;;;;;23.00;92.20;;;;;;5;36013764;41267118;-79
2021/08/13 06:12:14;;;;;;;;;;;23.30;93.40;;;;;;5;36013308;41267157;-80
2021/08/13 06:15:28;;;;;;;;;;;23.60;92.40;;;;;;5;36014345;41266312;-80
2021/08/13 06:18:45;;;;;;;;;;;23.80;91.50;;;;;;5;36012852;41265989;-81
2021/08/13 06:22:04;;;;;;;;;;;23.90;91.00;;;;;;5;36014451;41266107;-80
2021/08/13 06:25:24;;;;;;;;;;;23.90;90.50;;;;;;5;36013118;41266502;-80
2021/08/13 06:28:38;;;;;;;;;;;23.90;90.10;;;;;;5;36014750;41266126;-81
2021/08/13 06:31:57;;;;;;;;;;;24.00;89.00;;;;;;5;36013351;42015650;-80
2021/08/13 06:35:16;;;;;;;;;;;24.30;83.60;;;;;;5;36014401;41266233;-80
2021/08/13 06:38:36;;;;;;;;;;;24.40;81.80;;;;;;5;36013609;41265799;-80
2021/08/13 06:41:50;;;;;;;;;;;24.60;80.20;;;;;;5;36013258;41267397;-80
2021/08/13 06:45:08;;;;;;;;;;;24.70;82.50;;;;;;5;36012971;41266067;-80
2021/08/13 06:48:28;;;;;;;;;;;24.90;80.70;;;;;;5;36013876;41265936;-80
2021/08/13 06:51:47;;;;;;;;;;;25.00;80.70;;;;;;5;36013351;41265527;-80
2021/08/13 06:55:02;;;;;;;;;;;25.10;80.00;;;;;;5;36013310;41266249;-82
2021/08/13 06:58:19;;;;;;;;;;;25.10;81.10;;;;;;5;36014574;41265666;-80
2021/08/13 07:01:38;;;;;;;;;;;25.20;79.60;;;;;;5;36013676;41266461;-78
2021/08/13 07:04:59;;;;;;;;;;;25.20;81.40;;;;;;5;36013121;42016614;-79
2021/08/13 07:08:13;;;;;;;;;;;25.40;78.60;;;;;;5;36013157;41266790;-81
2021/08/13 07:11:30;;;;;;;;;;;25.40;78.80;;;;;;5;36012773;41267123;-80
2021/08/13 07:14:50;;;;;;;;;;;25.60;77.60;;;;;;5;36014186;41265174;-80
2021/08/13 07:18:09;;;;;;;;;;;25.70;79.30;;;;;;5;36014754;41266170;-81
2021/08/13 07:21:23;;;;;;;;;;;25.60;74.00;;;;;;5;36014317;41265861;-80
2021/08/13 07:24:40;;;;;;;;;;;25.50;73.70;;;;;;5;36014505;41267317;-80
2021/08/13 07:28:00;;;;;;;;;;;25.50;74.30;;;;;;5;36014684;41265478;-79
2021/08/13 07:31:19;;;;;;;;;;;25.50;76.60;;;;;;5;36013488;41266882;-79
2021/08/13 07:34:33;;;;;;;;;;;25.70;74.00;;;;;;5;36015103;41265186;-80
2021/08/13 07:37:52;;;;;;;;;;;25.80;73.60;;;;;;5;36013757;42016404;-80
2021/08/13 07:41:11;;;;;;;;;;;25.90;73.90;;;;;;5;36013293;41267127;-80
2021/08/13 07:44:31;;;;;;;;;;;26.20;74.80;;;;;;5;36014316;41266458;-80
2021/08/13 07:47:45;;;;;;;;;;;26.60;73.50;;;;;;5;36013090;41267068;-80
2021/08/13 07:51:02;;;;;;;;;;;26.90;74.10;;;;;;5;36013021;41266413;-80
2021/08/13 07:54:22;;;;;;;;;;;27.30;70.30;;;;;;5;36014333;41266836;-80
2021/08/13 07:57:41;;;;;;;;;;;27.80;70.50;;;;;;5;36014377;41265716;-81
2021/08/13 08:00:55;;;;;;;;;;;28.80;65.00;;;;;;5;36014131;41265823;-81
2021/08/13 08:04:12;;;;;;;;;;;29.90;63.60;;;;;;5;36013284;41266720;-80
2021/08/13 08:07:32;;;;;;;;;;;31.60;60.30;;;;;;5;36014400;41266228;-80
2021/08/13 08:10:53;;;;;;;;;;;33.10;57.40;;;;;;5;36014820;42015355;-80
2021/08/13 08:14:08;;;;;;;;;;;35.00;53.60;;;;;;5;36013972;41265834;-81
2021/08/13 08:17:25;;;;;;;;;;;36.20;50.50;;;;;;5;36013051;41265833;-81
2021/08/13 08:20:45;;;;;;;;;;;37.30;47.90;;;;;;5;36013030;41267081;-81
2021/08/13 08:24:04;;;;;;;;;;;38.10;47.30;;;;;;5;36014223;41265261;-79
2021/08/13 08:27:19;;;;;;;;;;;39.60;45.30;;;;;;5;36013576;41266568;-81
2021/08/13 08:30:36;;;;;;;;;;;41.00;43.40;;;;;;5;36016796;41265856;-81
2021/08/13 08:33:55;;;;;;;;;;;41.80;41.90;;;;;;5;36014199;41266161;-79
2021/08/13 08:37:14;;;;;;;;;;;41.60;41.80;;;;;;5;36013814;41265853;-79
2021/08/13 08:40:30;;;;;;;;;;;41.80;40.70;;;;;;5;36014268;41265383;-79
2021/08/13 08:43:49;;;;;;;;;;;42.40;40.00;;;;;;5;36013280;42016483;-81
2021/08/13 08:47:09;;;;;;;;;;;43.00;39.90;;;;;;5;36013936;41265707;-80
2021/08/13 08:50:29;;;;;;;;;;;43.00;39.30;;;;;;5;36013676;41266167;-81
2021/08/13 08:53:50;;;;;;;;;;;41.80;40.20;;;;;;5;36013991;41266282;-80
2021/08/13 08:57:08;;;;;;;;;;;40.40;42.10;;;;;;5;36013492;41265655;-80
2021/08/13 09:00:27;;;;;;;;;;;41.00;42.80;;;;;;5;36013662;41266841;-80
2021/08/13 09:03:48;;;;;;;;;;;42.60;40.30;;;;;;5;36015830;41267989;-81
2021/08/13 09:07:02;;;;;;;;;;;44.20;39.00;;;;;;5;36014260;41265213;-81
2021/08/13 09:10:19;;;;;;;;;;;45.50;37.70;;;;;;5;36013126;41267339;-79
2021/08/13 09:13:39;;;;;;;;;;;46.70;36.10;;;;;;5;36013814;41266885;-79
2021/08/13 09:17:00;;;;;;;;;;;46.40;35.30;;;;;;5;36013118;42016502;-79
2021/08/13 09:20:34;;;;;;;;;;;47.00;35.70;;;;;;5;36015984;41266582;-79
2021/08/13 09:23:54;;;;;;;;;;;47.40;35.10;;;;;;5;36013263;41265915;-80
2021/08/13 09:27:14;;;;;;;;;;;47.90;34.00;;;;;;5;36013205;41265661;-82
2021/08/13 09:30:33;;;;;;;;;;;46.20;34.70;;;;;;5;36013950;41266526;-79
2021/08/13 09:33:49;;;;;;;;;;;45.20;36.20;;;;;;5;36013845;41266636;-79
2021/08/13 09:37:14;;;;;;;;;;;44.40;36.70;;;;;;5;36013580;41266103;-81
2021/08/13 09:40:38;;;;;;;;;;;45.20;35.80;;;;;;5;36014650;41265334;-79
2021/08/13 09:43:58;;;;;;;;;;;46.50;34.50;;;;;;5;36013309;41266528;-79
2021/08/13 09:47:13;;;;;;;;;;;47.00;34.70;;;;;;5;36013647;41266859;-80
2021/08/13 09:50:35;;;;;;;;;;;48.10;33.00;;;;;;5;36013931;42016608;-79
2021/08/13 09:53:59;;;;;;;;;;;49.00;31.70;;;;;;5;36013726;41265895;-80
2021/08/13 09:57:18;;;;;;;;;;;49.40;32.40;;;;;;5;36014623;41265801;-80
2021/08/13 10:00:41;;;;;;;;;;;49.10;33.00;;;;;;5;36014084;41266570;-79
2021/08/13 10:03:58;;;;;;;;;;;49.30;32.50;;;;;;5;36013183;41266063;-79
2021/08/13 10:07:20;;;;;;;;;;;49.70;31.30;;;;;;5;36015048;41265662;-80
2021/08/13 10:10:41;;;;;;;;;;;49.40;32.20;;;;;;5;36013193;41266721;-79
2021/08/13 10:13:56;;;;;;;;;;;49.30;31.90;;;;;;5;36016084;41265039;-79
2021/08/13 10:17:14;;;;;;;;;;;48.60;32.80;;;;;;5;36014054;41266724;-79
2021/08/13 10:20:44;;;;;;;;;;;47.40;33.70;;;;;;5;36013503;41266234;-80
2021/08/13 10:24:08;;;;;;;;;;;46.60;34.40;;;;;;5;36014686;42017976;-80
2021/08/13 10:27:23;;;;;;;;;;;47.40;33.70;;;;;;5;36018541;41266442;-80
2021/08/13 10:30:41;;;;;;;;;;;48.70;32.70;;;;;;5;36013772;41264541;-88
2021/08/13 10:34:00;;;;;;;;;;;49.70;31.70;;;;;;5;36013868;41266538;-89
2021/08/13 10:37:21;;;;;;;;;;;50.70;30.40;;;;;;5;36016279;41266177;-88
2021/08/13 10:40:37;;;;;;;;;;;51.50;29.90;;;;;;5;36015029;41266511;-87
2021/08/13 10:43:56;;;;;;;;;;;51.60;29.80;;;;;;5;36013497;41265315;-87
2021/08/13 10:47:17;;;;;;;;;;;50.90;30.60;;;;;;5;36012435;41266425;-89
2021/08/13 10:50:37;;;;;;;;;;;49.40;30.50;;;;;;5;36014114;41265806;-78
2021/08/13 10:54:02;;;;;;;;;;;47.10;32.00;;;;;;5;36015882;41265710;-77
2021/08/13 10:57:41;;;;;;;;;;;45.00;33.50;;;;;;5;36014570;42016995;-76
2021/08/13 11:01:05;;;;;;;;;;;43.70;35.80;;;;;;5;36015163;41271853;-79
2021/08/13 11:04:40;;;;;;;;;;;44.10;34.90;;;;;;5;36013795;41269142;-78
2021/08/13 11:08:00;;;;;;;;;;;45.20;34.70;;;;;;5;36015054;41265453;-79
2021/08/13 11:11:17;;;;;;;;;;;45.80;34.60;;;;;;5;36013705;41266832;-78
2021/08/13 11:14:50;;;;;;;;;;;45.40;34.20;;;;;;5;36014702;41266159;-79
2021/08/13 11:18:25;;;;;;;;;;;44.10;35.30;;;;;;5;36016401;41266840;-80
2021/08/13 11:21:40;;;;;;;;;;;42.60;37.60;;;;;;5;36015272;41268046;-80
2021/08/13 11:24:58;;;;;;;;;;;41.70;38.50;;;;;;5;36014635;41267627;-80
2021/08/13 11:28:19;;;;;;;;;;;42.60;38.20;;;;;;5;36014929;41266790;-80
2021/08/13 11:31:50;;;;;;;;;;;43.30;37.00;;;;;;5;36013812;42015169;-80
2021/08/13 11:35:08;;;;;;;;;;;43.10;37.50;;;;;;5;36013629;41265426;-80
2021/08/13 11:38:44;;;;;;;;;;;42.00;38.30;;;;;;5;36012908;41265562;-80
2021/08/13 11:42:07;;;;;;;;;;;40.20;40.30;;;;;;5;36013219;41265999;-80
2021/08/13 11:45:33;;;;;;;;;;;39.30;41.30;;;;;;5;36013900;41266151;-79
2021/08/13 11:48:48;;;;;;;;;;;39.80;42.00;;;;;;5;36013846;41265376;-79
2021/08/13 11:52:05;;;;;;;;;;;42.20;39.70;;;;;;5;36013214;41265029;-80
2021/08/13 11:55:27;;;;;;;;;;;43.90;38.60;;;;;;5;36012569;41265391;-80
2021/08/13 11:58:55;;;;;;;;;;;45.60;36.50;;;;;;5;36013721;41267687;-82
2021/08/13 12:02:10;;;;;;;;;;;47.00;35.40;;;;;;5;36016020;41266201;-80
2021/08/13 12:05:38;;;;;;;;;;;48.10;33.90;;;;;;5;36013971;42016203;-78
2021/08/13 12:08:58;;;;;;;;;;;48.50;33.20;;;;;;5;36015399;41267080;-81
2021/08/13 12:12:17;;;;;;;;;;;49.10;33.00;;;;;;5;36013596;41267261;-78
2021/08/13 12:15:32;;;;;;;;;;;49.70;32.20;;;;;;5;36014426;41266167;-78
2021/08/13 12:18:50;;;;;;;;;;;49.50;32.70;;;;;;5;36013968;41266566;-77
2021/08/13 12:22:09;;;;;;;;;;;49.50;32.80;;;;;;5;36014994;41266081;-78
2021/08/13 12:25:33;;;;;;;;;;;50.00;32.40;;;;;;5;36014052;41265390;-78
2021/08/13 12:28:47;;;;;;;;;;;49.90;31.90;;;;;;5;36014255;41267217;-78
2021/08/13 12:32:08;;;;;;;;;;;49.50;31.90;;;;;;5;36013517;41266149;-78
2021/08/13 12:35:38;;;;;;;;;;;49.40;31.90;;;;;;5;36015497;41269248;-78
2021/08/13 12:38:59;;;;;;;;;;;48.80;32.20;;;;;;5;36013503;42018951;-78
2021/08/13 12:42:14;;;;;;;;;;;47.90;32.80;;;;;;5;36013767;41266042;-77
2021/08/13 12:45:31;;;;;;;;;;;47.10;33.20;;;;;;5;36014699;41265684;-78
2021/08/13 12:48:50;;;;;;;;;;;47.00;33.90;;;;;;5;36013910;41268284;-78
2021/08/13 12:52:20;;;;;;;;;;;47.00;33.70;;;;;;5;36015852;41267112;-78
2021/08/13 12:55:36;;;;;;;;;;;46.80;33.60;;;;;;5;36015552;41269009;-87
2021/08/13 12:59:08;;;;;;;;;;;46.30;34.50;;;;;;5;36013205;41266026;-88
2021/08/13 13:02:28;;;;;;;;;;;46.40;34.60;;;;;;5;36013157;41264990;-88
2021/08/13 13:06:04;;;;;;;;;;;46.50;33.90;;;;;;5;36013532;41266401;-88
2021/08/13 13:09:29;;;;;;;;;;;46.40;34.10;;;;;;5;36013375;41266732;-88
2021/08/13 13:12:48;;;;;;;;;;;46.40;33.50;;;;;;5;36013835;42015491;-88
2021/08/13 13:16:07;;;;;;;;;;;46.30;34.30;;;;;;5;36014008;41266257;-89
2021/08/13 13:19:27;;;;;;;;;;;46.30;34.70;;;;;;5;36013447;41265782;-89
2021/08/13 13:22:43;;;;;;;;;;;46.00;34.20;;;;;;5;36014822;41265245;-88
2021/08/13 13:26:08;;;;;;;;;;;45.90;34.70;;;;;;5;36013263;41266639;-89
2021/08/13 13:29:37;;;;;;;;;;;45.90;33.80;;;;;;5;36012793;41265704;-89
2021/08/13 13:33:06;;;;;;;;;;;45.50;35.00;;;;;;5;36013429;41265173;-89
2021/08/13 13:36:24;;;;;;;;;;;45.50;35.40;;;;;;5;36013929;41267246;-88
2021/08/13 13:39:42;;;;;;;;;;;45.10;34.60;;;;;;5;36017308;41265857;-88
2021/08/13 13:43:02;;;;;;;;;;;44.90;35.60;;;;;;5;36014106;41265276;-88
2021/08/13 13:46:22;;;;;;;;;;;45.00;35.50;;;;;;5;36013432;42016552;-88
2021/08/13 13:49:37;;;;;;;;;;;44.60;35.60;;;;;;5;36013240;41265733;-88
2021/08/13 13:52:54;;;;;;;;;;;44.10;36.30;;;;;;5;36014243;41265365;-87
2021/08/13 13:56:14;;;;;;;;;;;43.90;36.10;;;;;;5;36014281;41265796;-87
2021/08/13 13:59:33;;;;;;;;;;;43.80;36.40;;;;;;5;36013386;41264991;-87
2021/08/13 14:02:47;;;;;;;;;;;43.20;36.30;;;;;;5;36013772;41265084;-87
2021/08/13 14:06:05;;;;;;;;;;;43.20;37.10;;;;;;5;36014003;41266474;-87
2021/08/13 14:09:24;;;;;;;;;;;43.00;37.60;;;;;;5;36014158;41270686;-88
2021/08/13 14:12:44;;;;;;;;;;;43.20;37.00;;;;;;5;36012706;41266623;-88
2021/08/13 14:16:00;;;;;;;;;;;42.50;36.10;;;;;;5;36014166;41266359;-87
2021/08/13 14:19:18;;;;;;;;;;;42.00;37.20;;;;;;5;36013504;42015334;-87
2021/08/13 14:22:38;;;;;;;;;;;41.60;38.40;;;;;;5;36012654;41265715;-87
2021/08/13 14:26:00;;;;;;;;;;;41.30;39.60;;;;;;5;36012875;41265366;-87
2021/08/13 14:29:14;;;;;;;;;;;40.50;38.70;;;;;;5;36013017;41266055;-86
2021/08/13 14:32:31;;;;;;;;;;;40.10;39.30;;;;;;5;36012921;41264961;-86
2021/08/13 14:35:51;;;;;;;;;;;39.90;40.90;;;;;;5;36014345;41266083;-87
2021/08/13 14:39:10;;;;;;;;;;;39.70;40.20;;;;;;5;36013406;41265404;-86
2021/08/13 14:42:24;;;;;;;;;;;39.30;41.10;;;;;;5;36013419;41266221;-87
2021/08/13 14:45:43;;;;;;;;;;;38.90;40.80;;;;;;5;36013825;41266114;-86
2021/08/13 14:49:02;;;;;;;;;;;38.60;41.20;;;;;;5;36013404;41266445;-87
2021/08/13 14:52:23;;;;;;;;;;;38.50;43.10;;;;;;5;36014156;42015444;-86
2021/08/13 14:55:37;;;;;;;;;;;38.50;42.60;;;;;;5;36013985;41264945;-86
2021/08/13 14:58:54;;;;;;;;;;;38.00;42.20;;;;;;5;36016484;41265532;-86
2021/08/13 15:02:13;;;;;;;;;;;37.50;43.50;;;;;;5;36013890;41265807;-87
2021/08/13 15:05:33;;;;;;;;;;;37.00;45.80;;;;;;5;36014395;41265464;-88
2021/08/13 15:08:47;;;;;;;;;;;36.70;45.50;;;;;;5;36013303;41267090;-86
2021/08/13 15:12:06;;;;;;;;;;;36.20;45.90;;;;;;5;36014314;41265920;-86
2021/08/13 15:15:25;;;;;;;;;;;35.80;47.30;;;;;;5;36014161;41265299;-86
2021/08/13 15:18:44;;;;;;;;;;;35.60;47.40;;;;;;5;36012919;41265465;-87
2021/08/13 15:21:59;;;;;;;;;;;35.60;46.70;;;;;;5;36014165;41266565;-87
2021/08/13 15:25:17;;;;;;;;;;;35.40;47.70;;;;;;5;36013598;42016287;-87
2021/08/13 15:28:37;;;;;;;;;;;35.30;48.30;;;;;;5;36014634;41266287;-86
2021/08/13 15:31:56;;;;;;;;;;;35.10;47.60;;;;;;5;36013479;41266494;-87
2021/08/13 15:35:11;;;;;;;;;;;35.00;48.20;;;;;;5;36013717;41265412;-88
2021/08/13 15:38:28;;;;;;;;;;;34.80;48.40;;;;;;5;36013393;41266773;-89
2021/08/13 15:41:47;;;;;;;;;;;34.70;48.10;;;;;;5;36013097;41265416;-88
2021/08/13 15:45:07;;;;;;;;;;;34.30;48.80;;;;;;5;36013554;41264830;-87
2021/08/13 15:48:23;;;;;;;;;;;34.00;50.60;;;;;;5;36014006;41266210;-87
2021/08/13 15:51:41;;;;;;;;;;;34.10;50.90;;;;;;5;36012922;41266073;-87
2021/08/13 15:55:00;;;;;;;;;;;34.00;50.20;;;;;;5;36012853;41265527;-86
2021/08/13 15:58:21;;;;;;;;;;;33.90;50.40;;;;;;5;36014205;42015299;-88
2021/08/13 16:01:35;;;;;;;;;;;34.10;49.80;;;;;;5;36013992;41265597;-87
2021/08/13 16:04:52;;;;;;;;;;;34.00;48.90;;;;;;5;36012748;41265729;-88
2021/08/13 16:08:12;;;;;;;;;;;33.90;48.70;;;;;;5;36013203;41265225;-88
2021/08/13 16:11:31;;;;;;;;;;;33.90;49.00;;;;;;5;36013253;41266446;-89
2021/08/13 16:14:45;;;;;;;;;;;33.80;49.90;;;;;;5;36015711;41265470;-86
2021/08/13 16:18:03;;;;;;;;;;;33.70;49.80;;;;;;5;36013274;41266357;-88
2021/08/13 16:21:22;;;;;;;;;;;33.60;49.60;;;;;;5;36014084;41265434;-88
2021/08/13 16:24:43;;;;;;;;;;;33.40;50.10;;;;;;5;36012734;41265604;-87
2021/08/13 16:27:57;;;;;;;;;;;33.40;51.40;;;;;;5;36013862;41266791;-87
2021/08/13 16:31:16;;;;;;;;;;;33.40;49.90;;;;;;5;36014103;42015633;-88
2021/08/13 16:34:35;;;;;;;;;;;33.40;51.20;;;;;;5;36013812;41265890;-87
2021/08/13 16:37:54;;;;;;;;;;;33.30;51.90;;;;;;5;36012847;41266482;-87
2021/08/13 16:41:08;;;;;;;;;;;33.00;51.30;;;;;;5;36013756;41265026;-87
2021/08/13 16:44:26;;;;;;;;;;;33.00;52.70;;;;;;5;36012817;41267283;-87
2021/08/13 16:47:45;;;;;;;;;;;33.10;52.10;;;;;;5;36014329;41265101;-86
2021/08/13 16:51:04;;;;;;;;;;;33.00;51.90;;;;;;5;36013404;41265318;-87
2021/08/13 16:54:18;;;;;;;;;;;33.00;51.80;;;;;;5;36013184;41267810;-87
2021/08/13 16:57:36;;;;;;;;;;;32.90;53.20;;;;;;5;36013078;41266972;-88
2021/08/13 17:00:55;;;;;;;;;;;32.90;52.50;;;;;;5;36013210;41266262;-88
2021/08/13 17:04:16;;;;;;;;;;;32.80;51.60;;;;;;5;36014396;42015153;-88
2021/08/13 17:07:30;;;;;;;;;;;32.70;51.30;;;;;;5;36013511;41264988;-88
2021/08/13 17:10:48;;;;;;;;;;;32.60;52.60;;;;;;5;36013832;41265040;-88
2021/08/13 17:14:10;;;;;;;;;;;32.50;52.80;;;;;;5;36013267;41265569;-88
2021/08/13 17:17:30;;;;;;;;;;;32.20;53.20;;;;;;5;36013949;41265367;-88
2021/08/13 17:20:44;;;;;;;;;;;31.80;53.00;;;;;;5;36016623;41265124;-87
2021/08/13 17:24:01;;;;;;;;;;;31.30;54.10;;;;;;5;36013642;41265217;-87
2021/08/13 17:27:21;;;;;;;;;;;31.00;55.10;;;;;;5;36012800;41265579;-87
2021/08/13 17:30:40;;;;;;;;;;;30.70;58.00;;;;;;5;36013318;41265278;-87
2021/08/13 17:33:55;;;;;;;;;;;30.50;57.70;;;;;;5;36014210;41266227;-87
2021/08/13 17:37:13;;;;;;;;;;;30.20;60.00;;;;;;5;36012628;42015621;-87
2021/08/13 17:40:34;;;;;;;;;;;30.10;60.10;;;;;;5;36013479;41265975;-87
2021/08/13 17:43:53;;;;;;;;;;;29.80;58.80;;;;;;5;36013720;41265997;-87
2021/08/13 17:47:07;;;;;;;;;;;29.70;59.60;;;;;;5;36015810;41266717;-87
2021/08/13 17:50:24;;;;;;;;;;;29.50;60.80;;;;;;5;36012806;41266174;-87
2021/08/13 17:53:44;;;;;;;;;;;29.30;61.30;;;;;;5;36012775;41265998;-87
2021/08/13 17:57:04;;;;;;;;;;;29.20;61.00;;;;;;5;36012974;41265935;-87
2021/08/13 18:00:18;;;;;;;;;;;29.00;62.30;;;;;;5;36013585;41266751;-87
2021/08/13 18:03:37;;;;;;;;;;;29.00;62.50;;;;;;5;36013780;41265216;-87
2021/08/13 18:06:56;;;;;;;;;;;28.90;62.90;;;;;;5;36013082;41265678;-87
2021/08/13 18:10:17;;;;;;;;;;;28.80;62.20;;;;;;5;36013144;42015736;-87
2021/08/13 18:13:31;;;;;;;;;;;28.70;63.10;;;;;;5;36013318;41265221;-87
2021/08/13 18:16:52;;;;;;;;;;;28.60;63.90;;;;;;5;36013837;41268646;-87
2021/08/13 18:20:12;;;;;;;;;;;28.60;63.40;;;;;;5;36013308;41266376;-87
2021/08/13 18:23:31;;;;;;;;;;;28.40;65.30;;;;;;5;36012853;41266097;-87
2021/08/13 18:26:46;;;;;;;;;;;28.20;66.70;;;;;;5;36013088;41265807;-87
2021/08/13 18:30:03;;;;;;;;;;;28.00;67.80;;;;;;5;36014063;41266150;-87
2021/08/13 18:33:22;;;;;;;;;;;27.80;68.30;;;;;;5;36012833;41266566;-87
2021/08/13 18:36:42;;;;;;;;;;;27.70;69.80;;;;;;5;36012624;41266488;-87
2021/08/13 18:39:59;;;;;;;;;;;27.50;70.90;;;;;;5;36013284;41265146;-87
2021/08/13 18:43:18;;;;;;;;;;;27.30;70.90;;;;;;5;36012547;42016087;-87
2021/08/13 18:46:37;;;;;;;;;;;27.20;71.50;;;;;;5;36014076;41266586;-86
2021/08/13 18:49:56;;;;;;;;;;;27.00;72.40;;;;;;5;36013715;41265995;-87
2021/08/13 18:53:11;;;;;;;;;;;26.90;73.50;;;;;;5;36013955;41265198;-87
2021/08/13 18:56:28;;;;;;;;;;;26.80;73.20;;;;;;5;36013419;41265797;-87
2021/08/13 18:59:47;;;;;;;;;;;26.70;73.10;;;;;;5;36013565;41266228;-87
2021/08/13 19:03:07;;;;;;;;;;;26.60;73.90;;;;;;5;36013807;41264954;-87
2021/08/13 19:06:21;;;;;;;;;;;26.40;74.40;;;;;;5;36014512;41265470;-87
2021/08/13 19:09:39;;;;;;;;;;;26.30;75.00;;;;;;5;36014060;41264784;-87
2021/08/13 19:12:58;;;;;;;;;;;26.10;75.50;;;;;;5;36013955;41265511;-86
2021/08/13 19:16:19;;;;;;;;;;;26.00;75.90;;;;;;5;36013292;42016119;-87
2021/08/13 19:19:33;;;;;;;;;;;25.90;76.40;;;;;;5;36014581;41265410;-88
2021/08/13 19:22:51;;;;;;;;;;;25.80;76.50;;;;;;5;36012666;41264840;-87
2021/08/13 19:26:10;;;;;;;;;;;25.70;77.20;;;;;;5;36012794;41265752;-87
2021/08/13 19:29:30;;;;;;;;;;;25.60;78.80;;;;;;5;36014021;41265266;-87
2021/08/13 19:32:44;;;;;;;;;;;25.50;80.10;;;;;;5;36013211;41266379;-86
2021/08/13 19:36:01;;;;;;;;;;;25.30;79.60;;;;;;5;36013864;41265175;-86
2021/08/13 19:39:21;;;;;;;;;;;25.30;79.60;;;;;;5;36012724;41266280;-86
2021/08/13 19:42:40;;;;;;;;;;;25.20;79.40;;;;;;5;36014141;41265459;-86
2021/08/13 19:45:55;;;;;;;;;;;25.20;80.10;;;;;;5;36014058;41266182;-88
2021/08/13 19:49:13;;;;;;;;;;;25.00;80.40;;;;;;5;36013224;42016457;-87
2021/08/13 19:52:33;;;;;;;;;;;24.90;80.80;;;;;;5;36014455;41265953;-86
2021/08/13 19:55:52;;;;;;;;;;;24.90;81.30;;;;;;5;36012535;41265505;-87
2021/08/13 19:59:06;;;;;;;;;;;24.80;81.80;;;;;;5;36013263;41265398;-87
2021/08/13 20:02:24;;;;;;;;;;;24.70;82.20;;;;;;5;36013078;41265649;-87
2021/08/13 20:05:43;;;;;;;;;;;24.70;82.50;;;;;;5;36014191;41265020;-87
2021/08/13 20:09:02;;;;;;;;;;;24.60;83.70;;;;;;5;36014379;41265192;-87
2021/08/13 20:12:19;;;;;;;;;;;24.60;83.90;;;;;;5;36014329;41265144;-87
2021/08/13 20:15:37;;;;;;;;;;;24.60;85.20;;;;;;5;36012614;41265837;-87
2021/08/13 20:18:56;;;;;;;;;;;24.50;85.20;;;;;;5;36015521;41266244;-88
2021/08/13 20:22:20;;;;;;;;;;;24.40;86.40;;;;;;5;36014193;42015649;-87
2021/08/13 20:25:34;;;;;;;;;;;24.40;86.10;;;;;;5;36013477;41265462;-88
2021/08/13 20:28:51;;;;;;;;;;;24.40;86.10;;;;;;5;36013101;41265774;-86
2021/08/13 20:32:11;;;;;;;;;;;24.30;86.10;;;;;;5;36012666;41266653;-87
2021/08/13 20:35:30;;;;;;;;;;;24.30;86.30;;;;;;5;36013388;41266190;-85
2021/08/13 20:38:45;;;;;;;;;;;24.30;87.80;;;;;;5;36013415;41265208;-86
2021/08/13 20:42:02;;;;;;;;;;;24.20;87.10;;;;;;5;36013460;41265483;-86
2021/08/13 20:45:21;;;;;;;;;;;24.20;87.40;;;;;;5;36012948;41265849;-88
2021/08/13 20:48:41;;;;;;;;;;;24.10;86.60;;;;;;5;36012785;41265981;-87
2021/08/13 20:51:55;;;;;;;;;;;24.00;86.70;;;;;;5;36015171;41265505;-87
2021/08/13 20:55:14;;;;;;;;;;;23.90;87.00;;;;;;5;36012798;42016679;-87
2021/08/13 20:58:33;;;;;;;;;;;23.90;87.20;;;;;;5;36013025;41266485;-87
2021/08/13 21:01:52;;;;;;;;;;;23.80;88.90;;;;;;5;36013115;41266772;-87
2021/08/13 21:05:09;;;;;;;;;;;23.80;88.80;;;;;;5;36014066;41266652;-87
2021/08/13 21:08:26;;;;;;;;;;;23.70;89.00;;;;;;5;36012899;41266026;-87
2021/08/13 21:11:45;;;;;;;;;;;23.70;89.50;;;;;;5;36013432;41265621;-87
2021/08/13 21:15:06;;;;;;;;;;;23.50;90.10;;;;;;5;36013559;41265552;-87